Barra de Santa Rosa, Brazil
Current Conditions -  °F | °C
As of 2:00 PM on Thursday 30 Oct 2014 (Local Time) from SBKG Reporting Station
Scattered Clouds Scattered Clouds  
Wind Chill: 88°   Ceiling: Unl
Heat Index: 88°   Visibility: 6mi
Dew Point: 61°   Wind: 18mph
Humidity: 40%   Direction: 130°SE
Pressure: 29.94"   Gusts: NA
Location:  6.72°S, 36.06°W
Report Text: SBKG 301700Z 13016KT 9999 SCT040 31/16 Q1014
Loading
Personal Weather Stations






























Interactive Weather Map
Tropical Storm Tracking
New forecast layout! Learn more

10-Day Weather Forecast

Advertisements
Track Severe Weather on mobile